createdAt,value
2022-10-07T00:03:11.509Z,12
2022-10-07T00:08:11.537Z,13
2022-10-07T00:13:11.529Z,12
2022-10-07T00:18:11.519Z,13
2022-10-07T00:23:11.477Z,13
2022-10-07T00:28:11.489Z,15
2022-10-07T00:33:11.928Z,13
2022-10-07T00:38:11.543Z,12
2022-10-07T00:43:11.443Z,13
2022-10-07T00:48:11.582Z,13
2022-10-07T00:53:11.597Z,11
2022-10-07T00:58:11.489Z,12
2022-10-07T01:03:11.508Z,11
2022-10-07T01:08:11.654Z,12
2022-10-07T01:13:11.537Z,12
2022-10-07T01:18:11.508Z,10
2022-10-07T01:23:11.558Z,12
2022-10-07T01:28:11.743Z,12
2022-10-07T01:33:11.689Z,12
2022-10-07T01:38:11.697Z,11
2022-10-07T01:43:11.569Z,12
2022-10-07T01:48:11.689Z,11
2022-10-07T01:53:11.665Z,12
2022-10-07T01:58:11.757Z,12
2022-10-07T02:03:11.630Z,11
2022-10-07T02:08:11.636Z,10
2022-10-07T02:13:11.661Z,11
2022-10-07T02:18:11.705Z,12
2022-10-07T02:23:11.780Z,12
2022-10-07T02:28:11.724Z,13
2022-10-07T02:33:11.849Z,12
2022-10-07T02:38:11.760Z,12
2022-10-07T02:43:11.868Z,15
2022-10-07T02:48:11.718Z,13
2022-10-07T02:53:11.857Z,12
2022-10-07T02:58:11.708Z,12
2022-10-07T03:03:11.729Z,12
2022-10-07T03:08:11.721Z,12
2022-10-07T03:13:11.743Z,11
2022-10-07T03:18:11.831Z,12
2022-10-07T03:23:11.718Z,12
2022-10-07T03:28:11.784Z,13
2022-10-07T03:33:11.934Z,11
2022-10-07T03:38:11.748Z,13
2022-10-07T03:43:11.769Z,13
2022-10-07T03:48:11.924Z,14
2022-10-07T03:53:11.834Z,14
2022-10-07T03:58:11.810Z,15
2022-10-07T04:03:11.937Z,15
2022-10-07T04:08:11.822Z,16
2022-10-07T04:13:11.866Z,18
2022-10-07T04:18:11.987Z,14
2022-10-07T04:23:11.840Z,14
2022-10-07T04:28:11.913Z,13
2022-10-07T04:33:11.911Z,12
2022-10-07T04:38:12.086Z,13
2022-10-07T04:43:11.918Z,15
2022-10-07T04:48:12.000Z,22
2022-10-07T04:53:11.983Z,16
2022-10-07T04:58:12.015Z,14
2022-10-07T05:03:11.982Z,13
2022-10-07T05:08:12.051Z,14
2022-10-07T05:13:12.030Z,13
2022-10-07T05:18:12.007Z,17
2022-10-07T05:23:12.067Z,13
2022-10-07T05:28:12.126Z,14
2022-10-07T05:33:12.054Z,15
2022-10-07T05:38:12.116Z,15
2022-10-07T05:43:12.021Z,17
2022-10-07T05:48:12.007Z,13
2022-10-07T05:53:12.190Z,13
2022-10-07T05:58:12.158Z,13
2022-10-07T06:03:12.355Z,13
2022-10-07T06:08:12.181Z,12
2022-10-07T06:13:12.192Z,13
2022-10-07T06:18:12.148Z,12
2022-10-07T06:23:12.222Z,13
2022-10-07T06:28:12.150Z,17
2022-10-07T06:33:12.391Z,15
2022-10-07T06:38:12.167Z,17
2022-10-07T06:43:12.261Z,19
2022-10-07T06:48:12.181Z,14
2022-10-07T06:53:12.188Z,15
2022-10-07T06:58:12.428Z,17
2022-10-07T07:03:12.417Z,19
2022-10-07T07:08:12.169Z,19
2022-10-07T07:13:12.221Z,15
2022-10-07T07:18:12.167Z,16
2022-10-07T07:23:12.257Z,16
2022-10-07T07:28:12.235Z,15
2022-10-07T07:33:12.222Z,16
2022-10-07T07:38:12.212Z,16
2022-10-07T07:43:12.236Z,15
2022-10-07T07:48:12.380Z,17
2022-10-07T07:53:12.270Z,16
2022-10-07T07:58:12.247Z,17
2022-10-07T08:03:12.359Z,15
2022-10-07T08:08:12.444Z,18
2022-10-07T08:13:12.350Z,15
2022-10-07T08:18:12.428Z,15
2022-10-07T08:23:12.821Z,26
2022-10-07T08:28:12.333Z,14
2022-10-07T08:33:12.355Z,18
2022-10-07T08:38:14.460Z,15
2022-10-07T08:43:12.378Z,18
2022-10-07T08:48:12.343Z,17
2022-10-07T08:53:12.396Z,16
2022-10-07T08:58:12.444Z,17
2022-10-07T09:03:12.395Z,16
2022-10-07T09:08:12.470Z,18
2022-10-07T09:13:12.551Z,20
2022-10-07T09:18:12.612Z,20
2022-10-07T09:23:12.403Z,18
2022-10-07T09:28:12.536Z,18
2022-10-07T09:33:12.555Z,19
2022-10-07T09:38:12.451Z,20
2022-10-07T09:43:12.499Z,19
2022-10-07T09:48:12.526Z,19
2022-10-07T09:53:12.589Z,17
2022-10-07T09:58:12.609Z,19
2022-10-07T10:03:12.667Z,19
2022-10-07T10:08:12.520Z,18
2022-10-07T10:13:12.816Z,19
2022-10-07T10:18:12.551Z,18
2022-10-07T10:23:12.637Z,17
2022-10-07T10:28:12.752Z,18
2022-10-07T10:33:12.583Z,17
2022-10-07T10:38:12.582Z,18
2022-10-07T10:43:12.586Z,18
2022-10-07T10:48:12.597Z,15
2022-10-07T10:53:12.691Z,17
2022-10-07T10:58:12.741Z,17
2022-10-07T11:03:12.696Z,18
2022-10-07T11:08:12.618Z,17
2022-10-07T11:13:12.655Z,15
2022-10-07T11:18:12.627Z,15
2022-10-07T11:23:12.697Z,17
2022-10-07T11:28:12.696Z,14
2022-10-07T11:33:12.857Z,16
2022-10-07T11:38:12.665Z,15
2022-10-07T11:43:12.721Z,14
2022-10-07T11:48:12.689Z,12
2022-10-07T11:53:12.846Z,13
2022-10-07T11:58:12.827Z,13
2022-10-07T12:03:12.820Z,14
2022-10-07T12:08:12.747Z,15
2022-10-07T12:13:13.015Z,13
2022-10-07T12:18:12.776Z,13
2022-10-07T12:23:12.981Z,17
2022-10-07T12:28:12.812Z,14
2022-10-07T12:33:12.795Z,12
2022-10-07T12:38:12.835Z,19
2022-10-07T12:43:12.864Z,14
2022-10-07T12:48:12.806Z,15
2022-10-07T12:53:12.952Z,13
2022-10-07T12:58:12.836Z,13
2022-10-07T13:03:13.005Z,13
2022-10-07T13:08:12.974Z,10
2022-10-07T13:13:12.937Z,11
2022-10-07T13:18:13.064Z,11
2022-10-07T13:23:12.937Z,13
2022-10-07T13:28:13.029Z,11
2022-10-07T13:33:13.041Z,12
2022-10-07T13:38:13.004Z,11
2022-10-07T13:43:12.947Z,10
2022-10-07T13:48:12.959Z,10
2022-10-07T13:53:13.046Z,11
2022-10-07T13:58:12.992Z,10
2022-10-07T14:03:13.152Z,11
2022-10-07T14:08:13.003Z,10
2022-10-07T14:13:13.015Z,10
2022-10-07T14:18:13.098Z,12
2022-10-07T14:23:13.017Z,11
2022-10-07T14:28:13.169Z,10
2022-10-07T14:33:13.115Z,10
2022-10-07T14:38:13.141Z,11
2022-10-07T14:43:13.168Z,11
2022-10-07T14:48:13.036Z,12
2022-10-07T14:53:13.139Z,11
2022-10-07T14:58:13.113Z,11
2022-10-07T15:03:13.068Z,11
2022-10-07T15:08:13.072Z,10
2022-10-07T15:13:13.537Z,11
2022-10-07T15:18:13.100Z,13
2022-10-07T15:23:13.083Z,19
2022-10-07T15:28:13.141Z,17
2022-10-07T15:33:13.184Z,13
2022-10-07T15:38:13.133Z,13
2022-10-07T15:43:13.300Z,17
2022-10-07T15:48:13.167Z,14
2022-10-07T15:53:13.183Z,13
2022-10-07T15:58:13.297Z,14
2022-10-07T16:03:13.176Z,15
2022-10-07T16:08:13.183Z,16
2022-10-07T16:13:13.199Z,15
2022-10-07T16:18:13.375Z,14
2022-10-07T16:23:13.241Z,14
2022-10-07T16:28:13.311Z,14
2022-10-07T16:33:13.239Z,14
2022-10-07T16:38:13.296Z,13
2022-10-07T16:43:13.275Z,15
2022-10-07T16:48:13.485Z,14
2022-10-07T16:53:13.617Z,16
2022-10-07T16:58:13.395Z,13
2022-10-07T17:03:13.291Z,16
2022-10-07T17:08:13.417Z,14
2022-10-07T17:13:13.417Z,16
2022-10-07T17:18:13.335Z,16
2022-10-07T17:23:13.469Z,14
2022-10-07T17:28:13.399Z,14
2022-10-07T17:33:13.409Z,14
2022-10-07T17:38:13.376Z,13
2022-10-07T17:43:13.649Z,16
2022-10-07T17:48:13.493Z,17
2022-10-07T17:53:13.538Z,16
2022-10-07T17:58:13.502Z,17
2022-10-07T18:03:13.388Z,16
2022-10-07T18:08:13.416Z,15
2022-10-07T18:13:13.521Z,14
2022-10-07T18:18:13.433Z,13
2022-10-07T18:23:13.456Z,17
2022-10-07T18:28:14.020Z,19
2022-10-07T18:33:13.475Z,18
2022-10-07T18:38:13.475Z,20
2022-10-07T18:43:13.569Z,20
2022-10-07T18:48:13.616Z,22
2022-10-07T18:53:13.680Z,22
2022-10-07T18:58:13.520Z,20
2022-10-07T19:03:13.721Z,19
2022-10-07T19:08:13.523Z,19
2022-10-07T19:13:16.086Z,23
2022-10-07T19:18:13.648Z,19
2022-10-07T19:23:13.572Z,18
2022-10-07T19:28:13.630Z,18
2022-10-07T19:33:13.623Z,17
2022-10-07T19:38:13.617Z,15
2022-10-07T19:43:13.582Z,14
2022-10-07T19:48:14.523Z,13
2022-10-07T19:53:13.660Z,14
2022-10-07T19:58:13.705Z,15
2022-10-07T20:03:13.616Z,12
2022-10-07T20:08:13.753Z,14
2022-10-07T20:13:13.801Z,16
2022-10-07T20:18:13.796Z,14
2022-10-07T20:23:13.647Z,14
2022-10-07T20:28:13.760Z,14
2022-10-07T20:33:13.805Z,14
2022-10-07T20:38:13.714Z,14
2022-10-07T20:43:13.713Z,13
2022-10-07T20:48:13.752Z,12
2022-10-07T20:53:13.742Z,12
2022-10-07T20:58:13.729Z,17
2022-10-07T21:03:14.057Z,16
2022-10-07T21:08:13.746Z,19
2022-10-07T21:13:13.865Z,19
2022-10-07T21:18:13.857Z,22
2022-10-07T21:23:14.017Z,21
2022-10-07T21:28:13.812Z,23
2022-10-07T21:33:13.803Z,22
2022-10-07T21:38:13.921Z,28
2022-10-07T21:43:13.812Z,25
2022-10-07T21:48:13.960Z,17
2022-10-07T21:53:13.972Z,18
2022-10-07T21:58:14.021Z,19
2022-10-07T22:03:13.857Z,19
2022-10-07T22:08:13.871Z,21
2022-10-07T22:13:13.963Z,21
2022-10-07T22:18:13.909Z,22
2022-10-07T22:23:13.955Z,19
2022-10-07T22:28:14.042Z,20
2022-10-07T22:33:15.357Z,19
2022-10-07T22:38:13.960Z,19
2022-10-07T22:43:13.962Z,20
2022-10-07T22:48:13.928Z,15
2022-10-07T22:53:13.988Z,13
2022-10-07T22:58:13.939Z,13
2022-10-07T23:03:15.616Z,15
2022-10-07T23:08:15.120Z,13
2022-10-07T23:13:14.121Z,15
2022-10-07T23:18:14.181Z,19
2022-10-07T23:23:14.110Z,19
2022-10-07T23:28:14.178Z,19
2022-10-07T23:33:14.367Z,13
2022-10-07T23:38:14.203Z,12
2022-10-07T23:43:14.289Z,15
2022-10-07T23:48:14.158Z,19
2022-10-07T23:53:14.262Z,20
2022-10-07T23:58:14.260Z,18
